Latest Weather Observations for Blackwater Airport

IDQ60801

Issued at 3:22 pm EST Thursday 25 April 2024 (issued every 10 minutes, with the page automatically refreshed every 10 minutes)

About weather observations | Map of weather stations | Latest weather observations for QLD | Other Formats
Station Details ID: 035134 Name: BLACKWATER AIRPORT Lat: -23.60 Lon: 148.81 Height: 192.95 m
Data from the previous 72 hours. | See also: Recent months at Blackwater Airport
Date/Time
EST
Temp
°C
App
Temp
°C
Dew
Point
°C
Rel
Hum
%
Delta-T
°C
Wind Press
QNH
hPa
Press
MSL
hPa
Rain since
9am
mm
Dir  Spd
km/h
Gust
km/h
Spd
kts
Gust
kts
25/03:00pm 28.5 24.7 9.2 30 10.8 SSE 19 30 10 16 1014.7 1013.8 0.0
25/02:30pm 28.8 25.4 9.0 29 11.0 S 17 26 9 14 1014.9 1014.0 0.0
25/02:00pm 29.3 25.7 9.9 30 11.0 SSW 19 30 10 16 1015.1 1014.2 0.0
25/01:30pm 29.2 25.9 10.8 32 10.6 SW 19 28 10 15 1015.4 1014.5 0.0
25/01:00pm 28.0 25.4 10.7 34 9.9 S 15 24 8 13 1015.9 1015.0 0.0
25/12:30pm 27.9 24.6 11.0 35 9.7 S 19 28 10 15 1016.3 1015.4 0.0
25/12:00pm 28.4 27.2 12.7 38 9.3 SSE 11 24 6 13 1016.8 1015.9 0.0
25/11:30am 28.1 27.4 14.3 42 8.4 SSE 11 17 6 9 1017.3 1016.4 0.0
25/11:00am 27.9 27.8 15.9 48 7.4 E 11 19 6 10 1017.8 1016.9 0.0
25/10:30am 26.6 27.7 16.5 54 6.3 SE 6 15 3 8 1018.2 1017.3 0.0
25/10:00am 25.2 25.6 16.4 58 5.4 SW 9 17 5 9 1018.5 1017.6 0.0
25/09:30am 24.5 25.1 16.7 61 4.8 SSE 9 15 5 8 1018.6 1017.7 0.0
25/09:00am 23.9 25.6 18.1 70 3.7 SE 6 11 3 6 1018.7 1017.8 0.0
25/08:30am 22.3 23.3 17.7 75 2.9 SE 9 13 5 7 1018.5 1017.6 0.0
25/08:00am 20.4 21.1 17.0 81 2.1 SSE 9 11 5 6 1018.4 1017.5 0.0
25/07:30am 18.6 19.0 16.4 87 1.3 SSE 9 11 5 6 1018.2 1017.3 0.0
25/07:00am 16.3 16.5 14.7 90 0.9 S 7 9 4 5 1018.0 1017.1 0.0
25/06:30am 14.3 13.8 12.5 89 1.0 S 7 9 4 5 1017.9 1017.0 0.0
25/06:00am 13.9 12.4 11.8 87 1.1 SSW 11 13 6 7 1017.7 1016.8 0.0
25/05:30am 14.3 12.8 11.8 85 1.4 SSW 11 13 6 7 1017.5 1016.6 0.0
25/05:00am 14.2 12.2 11.5 84 1.5 SSW 13 15 7 8 1017.2 1016.3 0.0
25/04:30am 14.2 12.8 11.0 81 1.7 SSW 9 11 5 6 1017.0 1016.1 0.0
25/04:00am 14.7 15.1 11.1 79 1.9 CALM 0 6 0 3 1016.7 1015.8 0.0
25/03:30am 14.7 14.9 10.5 76 2.2 CALM 0 6 0 3 1016.6 1015.7 0.0
25/03:00am 15.3 14.5 10.9 75 2.4 NNW 6 9 3 5 1016.6 1015.7 0.0
25/02:30am 16.2 15.3 11.4 73 2.6 NE 7 9 4 5 1016.7 1015.8 0.0
25/02:00am 17.0 16.2 11.7 71 2.9 NE 7 9 4 5 1016.9 1016.0 0.0
25/01:30am 17.1 15.0 11.2 68 3.2 NE 13 13 7 7 1017.1 1016.2 0.0
25/01:00am 17.1 17.3 10.5 65 3.5 CALM 0 4 0 2 1017.5 1016.6 0.0
25/12:30am 17.5 16.6 10.6 64 3.7 ENE 6 9 3 5 1017.5 1016.6 0.0
25/12:00am 17.3 15.8 10.4 64 3.7 ENE 9 13 5 7 1017.7 1016.8 0.0
 
Date/Time
EST
Temp
°C
App
Temp
°C
Dew
Point
°C
Rel
Hum
%
Delta-T
°C
Wind Press
QNH
hPa
Press
MSL
hPa
Rain since
9am
mm
Dir  Spd
km/h
Gust
km/h
Spd
kts
Gust
kts
24/11:30pm 17.5 15.5 10.1 62 4.0 SW 11 13 6 7 1017.6 1016.7 0.0
24/11:00pm 18.2 16.7 10.6 61 4.1 S 9 13 5 7 1017.6 1016.7 0.0
24/10:30pm 17.3 15.9 9.7 61 4.0 S 7 15 4 8 1017.7 1016.8 0.0
24/10:00pm 17.3 15.1 9.2 59 4.2 S 11 15 6 8 1017.9 1017.0 0.0
24/09:30pm 17.9 16.0 9.0 56 4.7 S 9 11 5 6 1017.9 1017.0 0.0
24/09:00pm 18.5 17.1 8.7 53 5.1 ESE 6 7 3 4 1017.9 1017.0 0.0
24/08:30pm 20.9 19.5 9.5 48 6.1 ESE 7 9 4 5 1017.9 1017.0 0.0
24/08:00pm 21.9 20.2 9.8 46 6.6 ESE 9 11 5 6 1017.7 1016.8 0.0
24/07:30pm 22.4 20.7 9.9 45 6.8 SE 9 11 5 6 1017.6 1016.7 0.0
24/07:00pm 24.1 22.3 10.7 43 7.5 ESE 11 13 6 7 1017.4 1016.5 0.0
24/06:30pm 24.7 22.8 10.6 41 7.9 ESE 11 15 6 8 1017.2 1016.3 0.0
24/06:00pm 25.1 22.7 10.2 39 8.3 E 13 19 7 10 1016.8 1015.9 0.0
24/05:30pm 26.0 23.1 9.8 36 9.0 ESE 15 20 8 11 1016.5 1015.6 0.0
24/05:00pm 27.3 24.0 9.6 33 9.9 E 17 20 9 11 1016.0 1015.1 0.0
24/04:30pm 28.8 25.6 10.0 31 10.7 NE 17 24 9 13 1015.6 1014.7 0.0
24/04:00pm 29.2 26.5 10.3 31 10.8 ENE 15 19 8 10 1015.5 1014.6 0.0
24/03:30pm 28.9 26.9 10.1 31 10.7 SE 11 19 6 10 1015.5 1014.6 0.0
24/03:00pm 29.2 27.2 10.3 31 10.8 ESE 11 20 6 11 1015.9 1015.0 0.0
24/02:30pm 29.6 27.4 10.7 31 10.9 E 13 22 7 12 1016.1 1015.2 0.0
24/02:00pm 29.1 27.6 10.7 32 10.6 ESE 9 19 5 10 1016.4 1015.5 0.0
24/01:30pm 28.8 27.0 10.9 33 10.3 ENE 11 22 6 12 1016.8 1015.9 0.0
24/01:00pm 28.6 26.4 10.8 33 10.2 SE 13 19 7 10 1017.3 1016.4 0.0
24/12:30pm 28.4 26.8 11.5 35 9.8 SE 11 22 6 12 1017.7 1016.8 0.0
24/12:00pm 28.1 26.3 12.0 36 9.4 NE 13 20 7 11 1018.2 1017.3 0.0
24/11:30am 26.6 24.9 12.3 41 8.3 SE 13 24 7 13 1018.8 1017.9 0.0
24/11:00am 26.8 25.8 13.5 44 7.9 ESE 11 20 6 11 1019.4 1018.6 0.0
24/10:30am 27.2 26.4 15.2 47 7.3 E 13 20 7 11 1020.0 1019.1 0.0
24/10:00am 25.0 24.4 14.5 52 6.3 SE 11 19 6 10 1020.2 1019.3 0.0
24/09:30am 24.9 25.1 15.8 57 5.6 ESE 9 15 5 8 1020.3 1019.4 0.0
24/09:00am 24.0 24.4 16.3 62 4.7 SSE 9 17 5 9 1020.4 1019.5 0.0
24/08:30am 22.7 22.6 16.9 70 3.6 SSE 13 17 7 9 1020.3 1019.4 0.0
24/08:00am 20.7 21.9 17.3 81 2.1 S 7 9 4 5 1019.9 1019.0 0.0
24/07:30am 17.5 17.5 15.3 87 1.3 SSW 9 13 5 7 1019.7 1018.8 0.0
24/07:00am 14.5 12.9 12.7 89 1.0 SSW 13 15 7 8 1019.4 1018.6 0.0
24/06:30am 13.8 12.3 12.0 89 1.0 SSW 11 15 6 8 1019.0 1018.2 0.0
24/06:00am 13.5 12.2 11.4 87 1.1 SSW 9 13 5 7 1018.7 1017.8 0.0
24/05:30am 14.0 12.5 11.9 87 1.1 SSW 11 13 6 7 1018.7 1017.8 0.0
24/05:00am 13.9 12.3 11.4 85 1.3 S 11 15 6 8 1018.3 1017.4 0.0
24/04:30am 13.9 11.9 11.4 85 1.3 SSW 13 15 7 8 1018.0 1017.1 0.0
24/04:00am 13.9 12.2 11.1 83 1.5 SSW 11 15 6 8 1017.9 1017.0 0.0
24/03:30am 14.1 12.3 10.9 81 1.7 S 11 13 6 7 1017.9 1017.0 0.0
24/03:00am 13.6 11.6 10.0 79 1.9 SSW 11 13 6 7 1018.0 1017.1 0.0
24/02:30am 14.3 13.1 10.3 77 2.1 SSW 7 11 4 6 1018.3 1017.4 0.0
24/02:00am 15.1 15.3 10.7 75 2.3 CALM 0 0 0 0 1018.7 1017.8 0.0
24/01:30am 14.9 14.6 10.1 73 2.5 NNE 2 7 1 4 1019.1 1018.3 0.0
24/01:00am 16.3 16.7 11.2 72 2.8 CALM 0 0 0 0 1019.6 1018.7 0.0
24/12:30am 15.9 16.1 10.4 70 2.9 CALM 0 0 0 0 1020.0 1019.1 0.0
24/12:00am 16.5 15.6 10.6 68 3.2 NNE 6 7 3 4 1020.2 1019.3 0.0
 
Date/Time
EST
Temp
°C
App
Temp
°C
Dew
Point
°C
Rel
Hum
%
Delta-T
°C
Wind Press
QNH
hPa
Press
MSL
hPa
Rain since
9am
mm
Dir  Spd
km/h
Gust
km/h
Spd
kts
Gust
kts
23/11:30pm 16.7 15.5 10.3 66 3.4 NNE 7 9 4 5 1020.2 1019.3 0.0
23/11:00pm 18.0 16.2 10.9 63 3.9 NE 11 13 6 7 1020.4 1019.5 0.0
23/10:30pm 19.4 18.2 11.7 61 4.3 ENE 9 11 5 6 1020.3 1019.4 0.0
23/10:00pm 20.5 18.7 12.2 59 4.7 E 13 17 7 9 1020.1 1019.2 0.0
23/09:30pm 20.7 18.5 12.1 58 4.9 E 15 24 8 13 1019.8 1018.9 0.0
23/09:00pm 20.3 18.7 11.5 57 4.9 E 11 13 6 7 1019.6 1018.7 0.0
23/08:30pm 20.8 19.2 11.4 55 5.2 E 11 13 6 7 1019.2 1018.4 0.0
23/08:00pm 21.6 19.3 11.9 54 5.5 E 15 22 8 12 1019.0 1018.2 0.0
23/07:30pm 21.2 19.1 11.2 53 5.6 SSE 13 15 7 8 1018.3 1017.4 0.0
23/07:00pm 21.7 19.6 11.1 51 5.9 SSE 13 15 7 8 1018.2 1017.3 0.0
23/06:30pm 22.9 20.8 11.3 48 6.5 SSE 13 15 7 8 1017.9 1017.0 0.0
23/06:00pm 24.4 22.2 12.0 46 7.1 SE 15 20 8 11 1017.6 1016.7 0.0
23/05:30pm 25.1 22.8 11.6 42 7.7 ESE 15 24 8 13 1017.3 1016.4 0.0
23/05:00pm 26.2 23.1 11.5 40 8.4 E 19 26 10 14 1017.2 1016.3 0.0
23/04:30pm 27.6 24.3 11.6 37 9.3 E 20 28 11 15 1017.1 1016.2 0.0
23/04:00pm 27.7 25.4 11.7 37 9.3 ESE 15 24 8 13 1017.1 1016.2 0.0
23/03:30pm 29.4 27.8 12.8 36 9.9 E 13 28 7 15 1017.0 1016.1 0.0
23/03:00pm 28.3 25.1 11.4 35 9.8 SE 19 30 10 16 1017.2 1016.3 0.0
23/02:30pm 29.3 26.4 12.3 35 10.0 E 19 30 10 16 1017.3 1016.4 0.0
23/02:00pm 29.0 26.1 12.4 36 9.8 ENE 19 26 10 14 1017.8 1016.9 0.0
23/01:30pm 29.1 27.2 12.9 37 9.6 E 15 28 8 15 1018.1 1017.2 0.0
23/01:00pm 28.4 26.1 13.1 39 9.1 E 17 28 9 15 1018.8 1017.9 0.0
23/12:30pm 27.9 25.6 13.1 40 8.8 E 17 28 9 15 1019.3 1018.5 0.0
23/12:00pm 26.8 24.0 12.5 41 8.3 E 19 28 10 15 1020.1 1019.2 0.0
23/11:30am 27.6 25.0 13.9 43 8.2 ENE 20 35 11 19 1020.6 1019.7 0.0
23/11:00am 26.7 23.6 13.4 43 7.9 ENE 22 35 12 19 1020.9 1020.0 0.0
23/10:30am 26.7 22.7 14.1 46 7.6 E 28 35 15 19 1021.3 1020.4 0.0
23/10:00am 25.6 22.3 14.1 49 6.8 E 24 37 13 20 1021.5 1020.6 0.0
23/09:30am 25.5 22.9 14.9 52 6.4 E 22 30 12 16 1021.7 1020.8 0.0
23/09:00am 24.9 22.2 15.5 56 5.7 E 24 43 13 23 1021.4 1020.5 0.0
23/08:30am 23.5 24.5 16.8 66 4.1 S 7 17 4 9 1021.4 1020.5 0.0
23/08:00am 21.5 22.6 16.7 74 2.9 SSW 6 9 3 5 1021.2 1020.3 0.0
23/07:30am 18.8 18.4 15.3 80 2.1 SW 11 13 6 7 1020.9 1020.0 0.0
23/07:00am 16.1 15.4 13.2 83 1.6 SSW 9 11 5 6 1020.6 1019.7 0.0
23/06:30am 14.1 13.3 10.9 81 1.7 W 6 11 3 6 1020.3 1019.4 0.0
23/06:00am 14.6 13.8 11.2 80 1.8 W 6 9 3 5 1020.1 1019.2 0.0
23/05:30am 14.5 14.4 10.7 78 2.0 SW 2 7 1 4 1019.6 1018.7 0.0
23/05:00am 15.2 13.8 11.0 76 2.2 SSW 9 11 5 6 1019.6 1018.7 0.0
23/04:30am 15.3 14.4 10.7 74 2.5 SSE 6 7 3 4 1019.3 1018.5 0.0
23/04:00am 15.9 16.2 10.9 72 2.7 CALM 0 0 0 0 1019.1 1018.3 0.0
23/03:30am 17.0 16.1 11.5 70 3.0 SSE 7 11 4 6 1019.0 1018.2 0.0
23/03:00am 17.4 16.2 11.7 69 3.1 SSE 9 15 5 8 1019.2 1018.4 0.0
23/02:30am 17.7 16.5 11.5 67 3.4 ESE 9 11 5 6 1019.1 1018.3 0.0
23/02:00am 18.1 17.2 11.4 65 3.7 ESE 7 11 4 6 1019.4 1018.6 0.0
23/01:30am 19.8 18.2 12.8 64 4.0 ESE 13 19 7 10 1019.6 1018.7 0.0
23/01:00am 19.3 17.9 12.1 63 4.0 SE 11 13 6 7 1020.0 1019.1 0.0
23/12:30am 20.6 19.4 12.8 61 4.5 SE 11 13 6 7 1020.4 1019.5 0.0
23/12:00am 20.4 19.1 12.4 60 4.5 SE 11 15 6 8 1020.4 1019.5 0.0
 
Date/Time
EST
Temp
°C
App
Temp
°C
Dew
Point
°C
Rel
Hum
%
Delta-T
°C
Wind Press
QNH
hPa
Press
MSL
hPa
Rain since
9am
mm
Dir  Spd
km/h
Gust
km/h
Spd
kts
Gust
kts
22/11:30pm 20.8 18.6 12.2 58 4.9 ESE 15 20 8 11 1020.4 1019.5 0.0
22/11:00pm 21.7 19.2 12.3 55 5.3 E 17 24 9 13 1020.4 1019.5 0.0
22/10:30pm 23.1 20.1 12.7 52 6.0 SE 20 28 11 15 1020.3 1019.4 0.0
22/10:00pm 23.8 20.6 13.1 51 6.2 ESE 22 33 12 18 1020.2 1019.3 0.0
22/09:30pm 24.0 22.3 13.5 51 6.2 SE 15 22 8 12 1020.1 1019.2 0.0
22/09:00pm 24.1 22.0 13.6 52 6.2 ESE 17 24 9 13 1020.0 1019.1 0.0
22/08:30pm 24.3 22.3 13.8 52 6.2 SE 17 28 9 15 1019.8 1018.9 0.0
22/08:00pm 24.0 21.9 13.5 51 6.2 SE 17 24 9 13 1019.6 1018.7 0.0
22/07:30pm 24.2 21.5 13.4 51 6.3 SE 20 28 11 15 1019.1 1018.3 0.0
22/07:00pm 24.4 21.6 13.3 50 6.5 SSE 20 28 11 15 1018.8 1017.9 0.0
22/06:30pm 24.5 21.9 13.1 49 6.7 SE 19 26 10 14 1018.2 1017.3 0.0
22/06:00pm 24.8 21.9 13.0 47 6.9 SE 20 30 11 16 1017.9 1017.0 0.0
22/05:30pm 25.3 22.5 13.2 47 7.1 SE 20 30 11 16 1017.8 1016.9 0.0
22/05:00pm 25.8 22.6 13.0 45 7.5 SE 22 30 12 16 1017.4 1016.5 0.0
22/04:30pm 27.3 24.8 13.6 43 8.2 SE 19 26 10 14 1017.0 1016.1 0.0
22/04:00pm 26.7 23.0 12.7 42 8.2 SE 24 39 13 21 1016.9 1016.0 0.0
22/03:30pm 27.5 24.5 13.8 43 8.2 SE 22 32 12 17 1016.9 1016.0 0.0

Other formats

Comma delimited format used in spreadsheet applications
http://www.bom.gov.au/fwo/IDQ60801/IDQ60801.94398.axf

JavaScript Object Notation format (JSON) in row-major order
http://www.bom.gov.au/fwo/IDQ60801/IDQ60801.94398.json

Data quality

Most of these data are generated automatically and are frequently updated. Quality checks on data are not normally performed. It is possible for incorrect values to appear. Refer to information at About Latest Weather Observations and please check the disclaimer before using these data.